Time;durP1;ratioP1;P1;durP2;ratioP2;P2;SDS_P1;SDS_P2;PMS_P1;PMS_P2;Temp;Humidity;BMP_temperature;BMP_pressure;BME280_temperature;BME280_humidity;BME280_pressure;Samples;Min_cycle;Max_cycle;Signal;HPM_P1;HPM_P2
2022/05/27 00:00:15;;;;;;;5.75;3.13;;;11.30;99.90;;;;;;5092191;28;20020;-55
2022/05/27 00:02:40;;;;;;;2.92;2.63;;;11.30;99.90;;;;;;5091867;28;20031;-54
2022/05/27 00:05:07;;;;;;;5.28;2.58;;;11.30;99.90;;;;;;5087094;28;20025;-52
2022/05/27 00:07:32;;;;;;;9.73;4.35;;;11.30;99.90;;;;;;5072075;28;20037;-52
2022/05/27 00:09:58;;;;;;;5.20;3.42;;;11.30;99.90;;;;;;5071613;28;20028;-53
2022/05/27 00:12:24;;;;;;;11.07;2.72;;;11.20;99.90;;;;;;5071961;28;20036;-53
2022/05/27 00:14:49;;;;;;;9.75;2.75;;;11.20;99.90;;;;;;5073441;28;20037;-52
2022/05/27 00:17:15;;;;;;;12.35;2.67;;;11.10;99.90;;;;;;5092079;28;20032;-52
2022/05/27 00:19:41;;;;;;;6.40;2.38;;;11.10;99.90;;;;;;5092070;28;20348;-55
2022/05/27 00:22:08;;;;;;;7.60;2.72;;;11.10;99.90;;;;;;5091859;28;20032;-54
2022/05/27 00:24:36;;;;;;;2.80;2.35;;;11.00;99.90;;;;;;5077657;28;20054;-56
2022/05/27 00:27:02;;;;;;;3.65;2.83;;;11.00;99.90;;;;;;5071483;28;20016;-55
2022/05/27 00:29:28;;;;;;;10.82;3.10;;;11.00;99.90;;;;;;5071818;28;20081;-55
2022/05/27 00:31:54;;;;;;;8.32;2.47;;;10.90;99.90;;;;;;5071709;28;20036;-51
2022/05/27 00:34:19;;;;;;;6.85;2.30;;;10.90;99.90;;;;;;5082859;28;20028;-52
2022/05/27 00:36:45;;;;;;;7.75;2.80;;;10.90;99.90;;;;;;5091893;28;20363;-54
2022/05/27 00:39:10;;;;;;;6.22;2.63;;;10.90;99.90;;;;;;5091475;28;20030;-55
2022/05/27 00:41:36;;;;;;;12.07;3.05;;;10.80;99.90;;;;;;5091946;28;20070;-52
2022/05/27 00:44:02;;;;;;;5.25;3.00;;;10.80;99.90;;;;;;5080069;28;20040;-53
2022/05/27 00:46:31;;;;;;;8.18;3.42;;;10.80;99.90;;;;;;5071042;28;20032;-55
2022/05/27 00:49:11;;;;;;;3.42;2.92;;;10.80;99.90;;;;;;5071418;28;20031;-54
2022/05/27 00:51:47;;;;;;;8.23;2.80;;;10.60;99.90;;;;;;5051488;28;20116;-52
2022/05/27 00:54:25;;;;;;;2.58;2.38;;;10.60;99.90;;;;;;5066333;28;20522;-54
2022/05/27 00:56:55;;;;;;;4.53;3.10;;;10.60;99.90;;;;;;5091311;28;20031;-52
2022/05/27 00:59:33;;;;;;;4.90;3.30;;;10.60;99.90;;;;;;5091558;28;20048;-55
2022/05/27 01:01:59;;;;;;;5.68;3.22;;;10.60;99.90;;;;;;5091140;28;20028;-54
2022/05/27 01:04:27;;;;;;;5.03;2.72;;;10.60;99.90;;;;;;5082693;28;20035;-54
2022/05/27 01:06:53;;;;;;;5.65;3.00;;;10.60;99.90;;;;;;5069989;28;20495;-55
2022/05/27 01:09:19;;;;;;;3.65;2.63;;;10.60;99.90;;;;;;5068791;28;20059;-52
2022/05/27 01:12:05;;;;;;;3.75;2.28;;;10.60;99.90;;;;;;5068458;28;20058;-53
2022/05/27 01:14:52;;;;;;;4.68;2.83;;;10.60;99.90;;;;;;5077938;28;20487;-51
2022/05/27 01:17:47;;;;;;;8.55;3.28;;;10.50;99.90;;;;;;5087472;28;20048;-49
2022/05/27 01:20:49;;;;;;;4.85;2.90;;;10.50;99.90;;;;;;5089243;28;20383;-54
2022/05/27 01:23:17;;;;;;;4.75;2.33;;;10.40;99.90;;;;;;5090095;28;20048;-51
2022/05/27 01:25:51;;;;;;;5.55;2.78;;;10.30;99.90;;;;;;5071103;28;20040;-52
2022/05/27 01:28:35;;;;;;;3.33;3.03;;;10.40;99.90;;;;;;5073724;28;20582;-52
2022/05/27 01:31:27;;;;;;;7.47;2.63;;;10.40;99.90;;;;;;5074812;28;20024;-50
2022/05/27 01:34:18;;;;;;;3.70;2.70;;;10.50;99.90;;;;;;5092539;28;20434;-51
2022/05/27 01:37:05;;;;;;;5.68;2.78;;;10.60;99.90;;;;;;5094965;28;20051;-55
2022/05/27 01:39:40;;;;;;;5.68;2.72;;;10.60;99.90;;;;;;5093544;28;20378;-54
2022/05/27 01:42:10;;;;;;;3.22;2.67;;;10.70;99.90;;;;;;5094686;28;20024;-52
2022/05/27 01:44:48;;;;;;;7.28;4.88;;;10.80;99.90;;;;;;5095226;28;20547;-56
2022/05/27 01:47:35;;;;;;;3.47;2.90;;;10.90;99.90;;;;;;5091897;28;20027;-52
2022/05/27 01:50:14;;;;;;;3.53;2.80;;;11.00;99.90;;;;;;5094046;28;20039;-55
2022/05/27 01:53:05;;;;;;;6.63;2.92;;;11.10;99.90;;;;;;5087998;28;20031;-53
2022/05/27 01:55:42;;;;;;;3.72;2.92;;;11.10;99.90;;;;;;5073841;28;20028;-54
2022/05/27 01:58:19;;;;;;;5.10;2.70;;;11.20;99.90;;;;;;5073656;28;20112;-54
2022/05/27 02:00:48;;;;;;;2.92;2.67;;;11.30;99.90;;;;;;5074474;28;20440;-57
2022/05/27 02:03:29;;;;;;;4.53;2.80;;;11.30;99.90;;;;;;5085092;28;20077;-54
2022/05/27 02:06:07;;;;;;;7.20;2.90;;;11.30;99.90;;;;;;5094523;28;20111;-50
2022/05/27 02:09:21;;;;;;;7.80;3.65;;;11.30;99.90;;;;;;5094746;28;20027;-55
2022/05/27 02:11:51;;;;;;;7.93;3.10;;;11.40;99.90;;;;;;5094373;28;20016;-54
2022/05/27 02:14:24;;;;;;;10.02;3.17;;;11.50;99.90;;;;;;5074732;28;20404;-53
2022/05/27 02:16:59;;;;;;;4.45;3.33;;;11.50;99.90;;;;;;5074136;28;20081;-51
2022/05/27 02:19:35;;;;;;;5.53;3.03;;;11.50;99.90;;;;;;5073829;28;20116;-56
2022/05/27 02:22:06;;;;;;;6.18;3.35;;;11.60;99.90;;;;;;5074176;28;20039;-52
2022/05/27 02:24:54;;;;;;;2.78;2.50;;;11.60;99.90;;;;;;5074109;28;20059;-50
2022/05/27 02:27:26;;;;;;;5.15;3.20;;;11.70;99.90;;;;;;5073961;28;20387;-54
2022/05/27 02:29:57;;;;;;;3.78;2.90;;;11.70;99.90;;;;;;5073825;28;20462;-54
2022/05/27 02:32:29;;;;;;;9.10;2.92;;;11.70;99.90;;;;;;5075539;28;20028;-52
2022/05/27 02:35:12;;;;;;;7.13;3.22;;;11.80;99.90;;;;;;5093932;28;20107;-54
2022/05/27 02:37:54;;;;;;;3.15;2.80;;;11.80;99.90;;;;;;5093405;28;20023;-55
2022/05/27 02:40:25;;;;;;;8.05;3.30;;;11.90;99.90;;;;;;5093704;28;20408;-54
2022/05/27 02:42:53;;;;;;;4.50;2.90;;;11.90;99.90;;;;;;5086720;28;20056;-56
2022/05/27 02:45:33;;;;;;;5.07;2.70;;;11.90;99.90;;;;;;5073808;28;20123;-53
2022/05/27 02:48:28;;;;;;;3.25;2.88;;;11.90;99.90;;;;;;5073692;28;20024;-53
2022/05/27 02:51:05;;;;;;;3.28;2.97;;;11.90;99.90;;;;;;5072220;28;20069;-51
2022/05/27 02:54:01;;;;;;;5.90;2.97;;;12.00;99.90;;;;;;5084209;28;20110;-56
2022/05/27 02:56:40;;;;;;;12.18;3.50;;;12.00;99.90;;;;;;5093534;28;20069;-53
2022/05/27 02:59:09;;;;;;;6.63;2.75;;;12.00;99.90;;;;;;5093243;28;20471;-55
2022/05/27 03:01:35;;;;;;;12.35;3.22;;;12.10;99.90;;;;;;5093618;28;20553;-54
2022/05/27 03:04:00;;;;;;;3.47;3.15;;;12.10;99.90;;;;;;5077997;28;20038;-54
2022/05/27 03:06:26;;;;;;;5.97;2.80;;;12.10;99.90;;;;;;5073245;28;20087;-53
2022/05/27 03:09:42;;;;;;;7.22;3.10;;;12.10;99.90;;;;;;5073225;28;20472;-52
2022/05/27 03:12:42;;;;;;;3.25;2.63;;;12.10;99.90;;;;;;5072956;28;20025;-54
2022/05/27 03:15:28;;;;;;;8.88;2.60;;;12.20;99.90;;;;;;5056776;28;20074;-53
2022/05/27 03:18:36;;;;;;;9.30;4.28;;;12.20;99.90;;;;;;5074110;28;20115;-55
2022/05/27 03:21:08;;;;;;;15.73;8.00;;;12.20;99.90;;;;;;5072921;28;20486;-56
2022/05/27 03:23:40;;;;;;;9.80;5.93;;;12.30;99.90;;;;;;5083323;28;20105;-53
2022/05/27 03:26:18;;;;;;;3.53;3.08;;;12.30;99.90;;;;;;5092763;28;20573;-56
2022/05/27 03:29:11;;;;;;;8.15;3.45;;;12.30;99.90;;;;;;5092737;28;20032;-55
2022/05/27 03:31:39;;;;;;;16.33;7.30;;;12.30;99.90;;;;;;5092937;28;20400;-51
2022/05/27 03:34:18;;;;;;;12.40;6.68;;;12.20;99.90;;;;;;5077324;28;20039;-52
2022/05/27 03:37:06;;;;;;;13.38;5.57;;;12.20;99.90;;;;;;5072641;28;20660;-49
2022/05/27 03:39:52;;;;;;;9.48;5.43;;;12.30;99.90;;;;;;5071544;28;20024;-56
2022/05/27 03:42:19;;;;;;;9.68;5.40;;;12.40;99.90;;;;;;5071697;28;20040;-55
2022/05/27 03:45:07;;;;;;;10.00;5.60;;;12.40;99.90;;;;;;5092560;28;20025;-53
2022/05/27 03:47:34;;;;;;;12.02;5.50;;;12.40;99.90;;;;;;5091607;28;20036;-50
2022/05/27 03:50:00;;;;;;;5.82;4.28;;;12.50;99.90;;;;;;5092149;28;20038;-51
2022/05/27 03:52:31;;;;;;;9.73;4.25;;;12.50;99.90;;;;;;5091836;28;20032;-54
2022/05/27 03:54:56;;;;;;;13.75;4.70;;;12.50;99.90;;;;;;5071843;28;20024;-56
2022/05/27 03:57:22;;;;;;;9.73;5.85;;;12.60;99.90;;;;;;5071881;28;20029;-54
2022/05/27 03:59:47;;;;;;;18.33;5.13;;;12.70;99.90;;;;;;5071764;28;20020;-51
2022/05/27 04:02:13;;;;;;;12.27;6.80;;;12.70;99.90;;;;;;5071549;28;20037;-56
2022/05/27 04:04:39;;;;;;;10.07;6.50;;;12.70;99.90;;;;;;5090226;28;20032;-53
2022/05/27 04:07:04;;;;;;;12.18;4.85;;;12.80;99.90;;;;;;5090759;28;20039;-57
2022/05/27 04:09:30;;;;;;;5.55;4.10;;;12.90;99.90;;;;;;5092150;28;20028;-54
2022/05/27 04:11:56;;;;;;;4.82;3.08;;;13.00;99.90;;;;;;5092271;28;20043;-57
2022/05/27 04:14:23;;;;;;;7.03;2.83;;;13.20;99.90;;;;;;5092336;28;20035;-51
2022/05/27 04:16:48;;;;;;;6.88;2.67;;;13.40;99.90;;;;;;5075532;28;20403;-54
2022/05/27 04:19:16;;;;;;;14.57;4.78;;;13.50;99.90;;;;;;5071900;28;20032;-53
2022/05/27 04:21:41;;;;;;;8.82;4.40;;;13.50;99.90;;;;;;5071775;28;20025;-53
2022/05/27 04:24:07;;;;;;;7.15;4.18;;;13.60;99.90;;;;;;5071456;28;20037;-54
2022/05/27 04:26:34;;;;;;;6.55;3.17;;;13.60;99.90;;;;;;5084210;28;20031;-53
2022/05/27 04:29:00;;;;;;;9.75;3.25;;;13.70;99.90;;;;;;5092001;28;20324;-49
2022/05/27 04:31:26;;;;;;;7.15;3.90;;;13.80;99.90;;;;;;5091976;28;20020;-52
2022/05/27 04:33:51;;;;;;;10.50;3.35;;;13.80;99.90;;;;;;5091597;28;20019;-53
2022/05/27 04:36:17;;;;;;;6.53;2.70;;;13.80;99.90;;;;;;5080119;28;20025;-54
2022/05/27 04:38:43;;;;;;;3.13;2.83;;;13.90;99.90;;;;;;5071314;28;20082;-55
2022/05/27 04:41:09;;;;;;;8.25;2.53;;;14.10;99.90;;;;;;5071355;28;20482;-53
2022/05/27 04:43:35;;;;;;;4.22;2.90;;;14.20;99.90;;;;;;5071630;28;20448;-53
2022/05/27 04:46:01;;;;;;;5.03;2.80;;;14.20;99.90;;;;;;5079868;28;20734;-51
2022/05/27 04:48:27;;;;;;;3.70;2.58;;;14.30;99.90;;;;;;5091101;28;20499;-54
2022/05/27 04:50:53;;;;;;;3.60;2.42;;;14.40;99.90;;;;;;5091365;28;20125;-54
2022/05/27 04:53:19;;;;;;;12.98;3.63;;;14.40;99.90;;;;;;5091602;28;20364;-51
2022/05/27 04:55:45;;;;;;;7.25;2.65;;;14.40;99.90;;;;;;5083522;28;20598;-52
2022/05/27 04:58:11;;;;;;;3.63;2.60;;;14.50;99.90;;;;;;5071411;28;20021;-52
2022/05/27 05:00:41;;;;;;;3.33;2.47;;;14.60;99.90;;;;;;5071155;28;20100;-52
2022/05/27 05:03:07;;;;;;;2.78;2.08;;;14.60;99.90;;;;;;5070039;28;20028;-54
2022/05/27 05:05:35;;;;;;;4.90;2.78;;;14.60;99.90;;;;;;5075140;28;20629;-56
2022/05/27 05:08:12;;;;;;;13.32;3.22;;;14.60;99.90;;;;;;5090549;28;20028;-68
2022/05/27 05:10:38;;;;;;;3.85;2.33;;;14.60;99.90;;;;;;5091343;28;20359;-63
2022/05/27 05:13:03;;;;;;;2.92;2.65;;;14.70;99.90;;;;;;5091128;28;20024;-52
2022/05/27 05:15:29;;;;;;;9.55;2.88;;;14.60;99.90;;;;;;5085719;28;20036;-57
2022/05/27 05:17:56;;;;;;;3.78;2.60;;;14.70;99.90;;;;;;5070931;28;20167;-53
2022/05/27 05:20:28;;;;;;;4.97;2.50;;;14.90;99.90;;;;;;5070596;28;20456;-57
2022/05/27 05:22:54;;;;;;;6.35;2.42;;;14.90;99.90;;;;;;5069445;28;20048;-54
2022/05/27 05:25:21;;;;;;;5.50;2.63;;;15.00;99.90;;;;;;5071604;28;20024;-54
2022/05/27 05:27:46;;;;;;;2.90;2.60;;;15.00;99.90;;;;;;5089417;28;20036;-51
2022/05/27 05:30:15;;;;;;;3.28;2.45;;;15.10;99.90;;;;;;5088491;28;20032;-48
2022/05/27 05:32:41;;;;;;;5.60;3.13;;;15.10;99.90;;;;;;5089397;28;20129;-57
2022/05/27 05:35:09;;;;;;;9.57;2.80;;;15.20;99.90;;;;;;5088627;28;20024;-50
2022/05/27 05:37:34;;;;;;;5.35;2.58;;;15.20;99.90;;;;;;5091180;28;20065;-49
2022/05/27 05:40:00;;;;;;;7.68;2.05;;;15.30;99.90;;;;;;5091160;28;20629;-51
2022/05/27 05:42:26;;;;;;;6.93;2.30;;;15.30;99.90;;;;;;5091128;28;20020;-50
2022/05/27 05:44:51;;;;;;;9.60;2.38;;;15.30;99.90;;;;;;5090163;28;20027;-52
2022/05/27 05:47:17;;;;;;;4.18;2.20;;;15.40;99.90;;;;;;5088766;28;20488;-52
2022/05/27 05:49:43;;;;;;;3.38;2.47;;;15.50;99.90;;;;;;5088838;28;20035;-51
2022/05/27 05:52:08;;;;;;;2.47;2.25;;;15.60;99.90;;;;;;5089085;28;20116;-54
2022/05/27 05:54:34;;;;;;;4.85;2.30;;;15.70;99.90;;;;;;5088900;28;20090;-53
2022/05/27 05:57:02;;;;;;;5.05;2.60;;;15.70;99.90;;;;;;5070854;28;20028;-51
2022/05/27 05:59:32;;;;;;;3.30;2.15;;;15.80;99.90;;;;;;5069447;28;20103;-51
2022/05/27 06:01:59;;;;;;;5.18;2.95;;;15.80;99.90;;;;;;5069018;28;20032;-53
2022/05/27 06:04:25;;;;;;;8.32;2.40;;;15.80;99.90;;;;;;5070772;28;20028;-49
2022/05/27 06:06:51;;;;;;;6.80;2.40;;;15.80;99.90;;;;;;5077468;28;20404;-52
2022/05/27 06:09:19;;;;;;;11.07;1.92;;;16.00;99.90;;;;;;5070838;28;20033;-51
2022/05/27 06:11:45;;;;;;;3.65;2.10;;;16.10;99.90;;;;;;5070597;28;20048;-49
2022/05/27 06:14:11;;;;;;;3.30;2.20;;;16.10;99.90;;;;;;5072647;28;20073;-53
2022/05/27 06:16:36;;;;;;;3.50;1.95;;;16.30;99.90;;;;;;5087567;28;20054;-48
2022/05/27 06:19:02;;;;;;;11.18;1.80;;;16.50;99.90;;;;;;5094274;28;20089;-51
2022/05/27 06:21:28;;;;;;;2.65;2.20;;;16.60;99.90;;;;;;5094459;28;20376;-51
2022/05/27 06:23:53;;;;;;;3.35;2.00;;;16.70;99.90;;;;;;5094056;28;20101;-53
2022/05/27 06:26:19;;;;;;;2.33;1.83;;;16.90;99.90;;;;;;5081818;28;20028;-53
2022/05/27 06:34:26;;;;;;;7.32;2.25;;;17.40;99.90;;;;;;5074085;28;20039;-53
2022/05/27 06:37:18;;;;;;;5.57;1.70;;;17.50;99.90;;;;;;5089141;28;20046;-53
2022/05/27 06:39:44;;;;;;;3.17;2.05;;;17.60;99.90;;;;;;5093890;28;20021;-51
2022/05/27 06:42:12;;;;;;;2.50;2.30;;;17.60;99.90;;;;;;5094020;28;20020;-50
2022/05/27 06:44:39;;;;;;;4.22;2.00;;;17.30;99.90;;;;;;5093961;28;20023;-56
2022/05/27 06:47:05;;;;;;;6.43;2.00;;;17.20;99.90;;;;;;5073995;28;20036;-52
2022/05/27 06:49:32;;;;;;;5.55;2.13;;;17.50;99.90;;;;;;5073722;28;20104;-53
2022/05/27 06:51:58;;;;;;;5.35;1.73;;;17.40;99.90;;;;;;5073581;28;20025;-53
2022/05/27 06:54:24;;;;;;;6.03;1.98;;;17.50;99.90;;;;;;5073736;28;20051;-54
2022/05/27 06:56:52;;;;;;;3.30;2.58;;;17.50;99.90;;;;;;5090070;28;20028;-51
2022/05/27 06:59:20;;;;;;;3.38;1.85;;;18.00;99.90;;;;;;5093771;28;20082;-52
2022/05/27 07:01:46;;;;;;;5.88;1.83;;;18.10;99.90;;;;;;5092212;28;20452;-51
2022/05/27 07:04:12;;;;;;;2.58;1.83;;;18.10;99.90;;;;;;5093716;28;20509;-54
2022/05/27 07:06:43;;;;;;;8.23;2.42;;;18.00;99.90;;;;;;5075433;28;20115;-49
2022/05/27 07:09:13;;;;;;;3.25;1.70;;;17.90;99.90;;;;;;5073410;28;20020;-53
2022/05/27 07:11:41;;;;;;;6.50;1.73;;;18.00;99.90;;;;;;5073310;28;20025;-56
2022/05/27 07:14:07;;;;;;;3.05;1.75;;;18.00;99.90;;;;;;5073010;28;20107;-56
2022/05/27 07:16:32;;;;;;;3.70;1.58;;;18.00;99.90;;;;;;5089922;28;20108;-49
2022/05/27 07:18:58;;;;;;;4.60;2.05;;;18.10;99.90;;;;;;5093083;28;20032;-51
2022/05/27 07:21:25;;;;;;;3.50;1.98;;;17.90;99.90;;;;;;5093287;28;20028;-51
2022/05/27 07:23:55;;;;;;;3.22;1.85;;;18.10;99.90;;;;;;5091951;28;20032;-55
2022/05/27 07:26:21;;;;;;;3.63;1.80;;;18.10;99.90;;;;;;5076182;28;20025;-52
2022/05/27 07:28:47;;;;;;;8.20;1.67;;;18.40;99.90;;;;;;5072665;28;20059;-57
2022/05/27 07:31:13;;;;;;;3.70;2.10;;;18.50;99.90;;;;;;5072843;28;20048;-54
2022/05/27 07:33:40;;;;;;;5.85;1.65;;;18.40;99.90;;;;;;5072769;28;20048;-56
2022/05/27 07:36:06;;;;;;;4.47;1.70;;;18.30;99.90;;;;;;5085088;28;20024;-54
2022/05/27 07:38:32;;;;;;;2.88;1.50;;;18.30;99.90;;;;;;5092922;28;20016;-56
2022/05/27 07:40:58;;;;;;;3.35;1.58;;;18.30;99.90;;;;;;5088717;28;20108;-55
2022/05/27 07:43:25;;;;;;;2.97;1.30;;;18.60;99.90;;;;;;5072160;28;20075;-51
2022/05/27 07:45:50;;;;;;;5.30;1.50;;;18.70;99.90;;;;;;5082201;28;20111;-54
2022/05/27 07:48:16;;;;;;;3.35;1.50;;;18.60;99.90;;;;;;5092770;28;20107;-54
2022/05/27 07:50:42;;;;;;;9.07;1.40;;;18.70;99.90;;;;;;5092472;28;20111;-53
2022/05/27 07:53:08;;;;;;;3.20;1.88;;;18.80;99.90;;;;;;5084723;28;20059;-55
2022/05/27 07:55:33;;;;;;;2.80;1.45;;;18.50;99.90;;;;;;5072185;28;20052;-52
2022/05/27 07:57:59;;;;;;;7.13;1.40;;;18.80;99.90;;;;;;5072157;28;20025;-53
2022/05/27 08:00:28;;;;;;;3.00;1.83;;;19.00;99.90;;;;;;5072208;28;20031;-55
2022/05/27 08:02:54;;;;;;;2.25;1.50;;;19.00;99.90;;;;;;5076644;28;20020;-53
2022/05/27 08:05:27;;;;;;;1.40;1.30;;;19.00;99.90;;;;;;5092470;28;20028;-53
2022/05/27 08:07:57;;;;;;;2.80;1.33;;;19.00;99.90;;;;;;5090973;28;20051;-54
2022/05/27 08:10:25;;;;;;;5.70;1.80;;;19.00;99.90;;;;;;5092460;28;20032;-55
2022/05/27 08:12:51;;;;;;;3.50;1.33;;;18.90;99.90;;;;;;5087913;28;20020;-52
2022/05/27 08:15:17;;;;;;;6.05;1.60;;;19.10;99.90;;;;;;5071903;28;20593;-56
2022/05/27 08:17:43;;;;;;;3.08;1.50;;;19.20;99.90;;;;;;5071918;28;20525;-51
2022/05/27 08:20:12;;;;;;;3.05;1.60;;;19.40;99.90;;;;;;5070655;28;20028;-54
2022/05/27 08:22:38;;;;;;;2.58;1.63;;;19.50;99.90;;;;;;5073534;28;20040;-54
2022/05/27 08:25:04;;;;;;;3.10;1.45;;;19.50;99.90;;;;;;5091943;28;20028;-53
2022/05/27 08:27:30;;;;;;;6.03;1.60;;;19.60;99.90;;;;;;5092168;28;20032;-56
2022/05/27 08:29:56;;;;;;;2.55;1.45;;;19.50;99.60;;;;;;5091690;28;20028;-52
2022/05/27 08:32:21;;;;;;;13.77;1.60;;;19.90;99.90;;;;;;5092027;28;20032;-51
2022/05/27 08:40:24;;;;;;;2.92;1.30;;;20.20;98.80;;;;;;5091926;28;20521;-52
2022/05/27 08:43:21;;;;;;;2.20;1.02;;;19.90;97.10;;;;;;5087982;28;20027;-50
2022/05/27 08:46:03;;;;;;;3.83;1.38;;;19.90;98.60;;;;;;5071521;28;20392;-53
2022/05/27 08:48:33;;;;;;;1.90;1.27;;;20.20;99.00;;;;;;5071633;28;20032;-57
2022/05/27 08:51:06;;;;;;;1.90;1.33;;;20.30;98.30;;;;;;5071413;28;20111;-56
2022/05/27 08:53:48;;;;;;;2.72;1.30;;;20.30;97.10;;;;;;5080398;28;20152;-54
2022/05/27 08:59:42;;;;;;;3.30;0.95;;;20.40;96.80;;;;;;5091549;28;20027;-55
2022/05/27 09:02:25;;;;;;;2.97;1.50;;;20.50;98.00;;;;;;5091485;28;20016;-56
2022/05/27 09:05:14;;;;;;;9.75;1.45;;;20.50;97.70;;;;;;5071534;28;20029;-51
2022/05/27 09:07:43;;;;;;;1.25;1.02;;;20.60;96.80;;;;;;5071393;28;20035;-54
2022/05/27 09:10:19;;;;;;;3.17;1.50;;;20.50;97.00;;;;;;5071312;28;20040;-55
2022/05/27 09:13:14;;;;;;;2.50;1.45;;;20.50;95.60;;;;;;5072908;28;20066;-55
2022/05/27 09:16:06;;;;;;;2.53;1.27;;;20.70;97.30;;;;;;5091430;28;20028;-51
2022/05/27 09:19:06;;;;;;;2.83;1.35;;;20.80;97.80;;;;;;5091414;28;20031;-57
2022/05/27 09:21:49;;;;;;;3.92;1.48;;;21.00;95.20;;;;;;5091431;28;20112;-54
2022/05/27 09:24:40;;;;;;;2.42;1.17;;;21.10;96.20;;;;;;5075244;28;20519;-54
2022/05/27 09:27:14;;;;;;;1.27;1.17;;;21.10;97.10;;;;;;5071022;28;20041;-53
2022/05/27 09:29:58;;;;;;;7.32;1.70;;;21.10;94.90;;;;;;5071241;28;20027;-56
2022/05/27 09:32:51;;;;;;;4.03;1.17;;;21.10;95.50;;;;;;5083292;28;20039;-54
2022/05/27 09:35:25;;;;;;;4.45;1.35;;;21.40;95.10;;;;;;5091249;28;20070;-54
2022/05/27 09:37:53;;;;;;;2.65;1.20;;;21.60;95.80;;;;;;5091149;28;20505;-51
2022/05/27 09:40:54;;;;;;;1.38;1.13;;;21.40;95.10;;;;;;5078923;28;20040;-56
2022/05/27 09:43:39;;;;;;;4.32;1.30;;;21.80;95.60;;;;;;5061201;28;20033;-55
2022/05/27 09:46:10;;;;;;;3.55;1.45;;;21.80;94.80;;;;;;5069302;28;20086;-58
2022/05/27 09:48:35;;;;;;;2.45;1.33;;;21.50;94.10;;;;;;5071929;28;20498;-51
2022/05/27 09:51:04;;;;;;;2.80;1.10;;;21.80;95.10;;;;;;5073959;28;20040;-51
2022/05/27 09:53:45;;;;;;;4.60;1.13;;;21.90;96.00;;;;;;5094133;28;20580;-54
2022/05/27 09:56:13;;;;;;;3.42;1.17;;;21.90;94.30;;;;;;5091326;28;20020;-51
2022/05/27 09:58:44;;;;;;;1.92;1.13;;;21.70;93.50;;;;;;5084081;28;20098;-51
2022/05/27 10:01:26;;;;;;;5.50;1.83;;;21.50;93.30;;;;;;5073746;28;20032;-56
2022/05/27 10:04:01;;;;;;;4.55;1.23;;;21.80;92.90;;;;;;5074382;28;20024;-54
2022/05/27 10:06:29;;;;;;;6.93;2.80;;;21.90;93.60;;;;;;5074610;28;20044;-55
2022/05/27 10:08:57;;;;;;;5.80;1.30;;;22.00;92.70;;;;;;5074147;28;20082;-55
2022/05/27 10:11:45;;;;;;;2.28;1.05;;;22.40;94.40;;;;;;5076979;28;20162;-54
2022/05/27 10:14:22;;;;;;;4.32;1.70;;;22.60;91.70;;;;;;5091127;28;20036;-53
2022/05/27 10:17:01;;;;;;;9.70;1.25;;;22.60;91.50;;;;;;5094446;28;20020;-54
2022/05/27 10:19:27;;;;;;;4.50;1.15;;;22.40;92.10;;;;;;5094425;28;20025;-56
2022/05/27 10:21:59;;;;;;;2.83;1.20;;;22.40;92.50;;;;;;5087187;28;20025;-56
2022/05/27 10:24:37;;;;;;;1.13;0.90;;;22.20;91.50;;;;;;5077595;28;20036;-56
2022/05/27 10:27:19;;;;;;;2.05;1.20;;;22.40;91.00;;;;;;5094264;28;20028;-52
2022/05/27 10:29:53;;;;;;;6.07;1.27;;;22.90;92.80;;;;;;5094101;28;20021;-54
2022/05/27 10:32:37;;;;;;;3.70;0.95;;;22.90;91.50;;;;;;5080449;28;20024;-56
2022/05/27 10:35:21;;;;;;;3.67;1.67;;;22.80;92.30;;;;;;5073547;28;20069;-52
2022/05/27 10:37:50;;;;;;;2.92;1.48;;;22.30;91.70;;;;;;5073717;28;20667;-54
2022/05/27 10:40:36;;;;;;;2.28;1.08;;;22.50;92.10;;;;;;5078980;28;20039;-55
2022/05/27 10:43:11;;;;;;;5.22;1.17;;;22.60;90.60;;;;;;5093915;28;20028;-57
2022/05/27 10:45:44;;;;;;;4.60;1.23;;;22.80;90.50;;;;;;5093943;28;20020;-55
2022/05/27 10:48:44;;;;;;;2.17;1.15;;;23.30;90.10;;;;;;5094006;28;20480;-56
2022/05/27 10:51:27;;;;;;;4.43;1.00;;;23.00;90.60;;;;;;5081602;28;20051;-54
2022/05/27 10:54:07;;;;;;;1.50;0.77;;;23.20;90.30;;;;;;5072675;28;20060;-57
2022/05/27 11:03:10;;;;;;;3.03;1.15;;;23.90;89.50;;;;;;5042338;28;20087;-56
2022/05/27 11:05:52;;;;;;;1.80;1.20;;;23.20;86.70;;;;;;5045641;28;20048;-54
2022/05/27 11:08:28;;;;;;;2.72;0.90;;;22.50;88.90;;;;;;5043936;28;20389;-55
2022/05/27 11:10:57;;;;;;;12.80;1.40;;;22.30;89.80;;;;;;5042409;28;20036;-57
2022/05/27 11:16:29;;;;;;;1.88;1.02;;;22.60;85.90;;;;;;5041451;28;20079;-56
2022/05/27 11:19:50;;;;;;;9.77;1.80;;;22.80;91.00;;;;;;5042324;28;20029;-56
2022/05/27 11:22:37;;;;;;;1.95;1.10;;;22.80;88.10;;;;;;5019239;28;20037;-55
2022/05/27 11:25:05;;;;;;;4.00;1.00;;;22.70;88.50;;;;;;5020777;28;21040;-54
2022/05/27 11:27:37;;;;;;;2.85;1.38;;;22.80;87.90;;;;;;5033902;28;20151;-55
2022/05/27 11:30:23;;;;;;;4.55;1.30;;;22.40;88.10;;;;;;5042326;28;20036;-55
2022/05/27 11:33:28;;;;;;;2.60;1.00;;;22.80;89.00;;;;;;5041914;28;20032;-57
2022/05/27 11:36:15;;;;;;;3.28;0.95;;;23.70;88.60;;;;;;5041785;28;20515;-56
2022/05/27 11:39:09;;;;;;;5.38;1.35;;;23.40;84.50;;;;;;5059739;28;20078;-54
2022/05/27 11:44:48;;;;;;;;;;;24.10;85.10;;;;;;5041811;28;20421;-56
2022/05/27 11:47:20;;;;;;;;;;;24.30;88.50;;;;;;5043521;28;19940;-53
2022/05/27 11:50:04;;;;;;;;;;;24.00;85.90;;;;;;5041574;28;19917;-56
2022/05/27 11:52:36;;;;;;;;;;;23.50;85.90;;;;;;5041801;28;19922;-56
2022/05/27 11:55:01;;;;;;;;;;;23.90;85.30;;;;;;5041858;28;19921;-56
2022/05/27 11:57:39;;;;;;;;;;;23.40;85.30;;;;;;5040631;28;19909;-53
2022/05/27 12:00:10;;;;;;;;;;;23.80;85.60;;;;;;5041196;28;19913;-55
2022/05/27 12:02:42;;;;;;;;;;;24.00;83.70;;;;;;5041542;28;19955;-57
2022/05/27 12:05:12;;;;;;;;;;;24.90;85.90;;;;;;5040391;28;19913;-57
2022/05/27 12:07:48;;;;;;;;;;;25.40;84.70;;;;;;5040745;28;20279;-53
2022/05/27 12:10:26;;;;;;;;;;;25.50;79.20;;;;;;5041793;28;19908;-56
2022/05/27 12:13:01;;;;;;;;;;;25.50;79.80;;;;;;5041260;28;19944;-53
2022/05/27 12:15:45;;;;;;;;;;;25.70;75.80;;;;;;5040740;28;19935;-53
2022/05/27 12:18:18;;;;;;;;;;;25.40;78.30;;;;;;5040345;28;19912;-56
2022/05/27 12:20:44;;;;;;;;;;;25.90;75.70;;;;;;5072012;28;19909;-57
2022/05/27 12:23:11;;;;;;;;;;;26.70;75.40;;;;;;5039929;28;19924;-55
2022/05/27 12:25:40;;;;;;;;;;;26.50;74.10;;;;;;5039998;28;20253;-55
2022/05/27 12:28:06;;;;;;;;;;;27.30;77.80;;;;;;5039753;28;19909;-56
2022/05/27 12:30:39;;;;;;;;;;;26.30;70.20;;;;;;5040350;28;19928;-57
2022/05/27 12:33:05;;;;;;;;;;;25.70;72.00;;;;;;5040226;28;19909;-55
2022/05/27 12:35:33;;;;;;;;;;;25.40;75.20;;;;;;5041695;28;20308;-53
2022/05/27 12:38:15;;;;;;;;;;;24.70;74.60;;;;;;5041077;28;19908;-57
2022/05/27 12:40:40;;;;;;;;;;;25.50;74.00;;;;;;5039446;28;19911;-58
2022/05/27 12:43:26;;;;;;;;;;;25.20;76.40;;;;;;5040490;28;20352;-58
2022/05/27 12:45:52;;;;;;;;;;;25.00;76.90;;;;;;5040855;28;19988;-56
2022/05/27 12:48:47;;;;;;;;;;;26.30;73.70;;;;;;5040896;28;20003;-54
2022/05/27 12:51:15;;;;;;;;;;;27.40;72.30;;;;;;5063084;28;20391;-57
2022/05/27 12:53:57;;;;;;;;;;;28.10;68.30;;;;;;5041147;28;19999;-56
2022/05/27 13:02:19;;;;;;;;;;;26.70;73.80;;;;;;5041408;28;22300;-58
2022/05/27 13:04:44;;;;;;;;;;;27.90;69.50;;;;;;5054635;28;19935;-57
2022/05/27 13:07:11;;;;;;;;;;;26.70;67.50;;;;;;5040107;28;20359;-57
2022/05/27 13:09:44;;;;;;;;;;;26.20;73.70;;;;;;5041014;28;19999;-57
2022/05/27 13:12:30;;;;;;;;;;;26.30;75.40;;;;;;5046233;28;20352;-58
2022/05/27 13:14:56;;;;;;;;;;;27.10;67.90;;;;;;5043018;28;20381;-57
2022/05/27 13:17:42;;;;;;;;;;;26.90;66.50;;;;;;5043003;28;19916;-58
2022/05/27 13:20:16;;;;;;;;;;;25.40;69.00;;;;;;5042230;28;20394;-56
2022/05/27 13:22:45;;;;;;;;;;;25.40;69.70;;;;;;5041536;28;20253;-55
2022/05/27 13:25:19;;;;;;;;;;;25.10;72.40;;;;;;5045438;28;20042;-56
2022/05/27 13:27:45;;;;;;;;;;;25.80;71.00;;;;;;5045093;28;19909;-57
2022/05/27 13:30:12;;;;;;;;;;;27.30;69.30;;;;;;5044193;28;19924;-55
2022/05/27 13:32:51;;;;;;;;;;;27.40;68.10;;;;;;5044867;28;19947;-57
2022/05/27 13:35:17;;;;;;;;;;;27.80;69.20;;;;;;5048393;28;20375;-57
2022/05/27 13:37:50;;;;;;;;;;;28.10;66.90;;;;;;5044957;28;19919;-56
2022/05/27 13:40:20;;;;;;;;;;;29.80;67.30;;;;;;5045177;28;20416;-56
2022/05/27 13:42:48;;;;;;;;;;;28.40;62.80;;;;;;5044718;28;19909;-58
2022/05/27 13:45:35;;;;;;;;;;;29.40;65.60;;;;;;5044032;28;19916;-58
2022/05/27 13:48:09;;;;;;;;;;;30.40;62.90;;;;;;5044808;28;19917;-57
2022/05/27 13:50:36;;;;;;;;;;;30.90;63.90;;;;;;5044653;28;19904;-56
2022/05/27 13:53:13;;;;;;;;;;;31.00;58.20;;;;;;5044006;28;19966;-55
2022/05/27 13:55:39;;;;;;;;;;;30.70;58.30;;;;;;5042578;28;20008;-53
2022/05/27 13:58:04;;;;;;;;;;;31.60;57.70;;;;;;5044155;28;20007;-56
2022/05/27 14:00:32;;;;;;;;;;;32.60;56.20;;;;;;5044385;28;19908;-57
2022/05/27 14:02:57;;;;;;;;;;;31.40;54.50;;;;;;5044067;28;19917;-57